Terminal Aerodrome Forecast
Issued by NWS Cleveland, OH

Home | Current Version | Previous Version | Text Only | Print | Product List | Glossary On
Versions: 1 2 3 4 5 6 7 8 9 10 11 12 13 14 15 16 17 18 19 20 21 22 23 24 25 26 27 28 29 30 31 32
000
FTUS41 KCLE 191437 AAO
TAFCAK
TAF AMD
KCAK 191437Z 1915/2012 15004KT 3SM -RA BR BKN004
      TEMPO 1915/1917 4SM BKN040
     FM191700 VRB03KT 4SM -SHRA OVC003
     FM192100 VRB02KT 3SM BR VCSH OVC003
     FM200500 36005KT 6SM -SHRA OVC003
     FM200900 36005KT 6SM BR VCSH OVC003=

USA.gov is the U.S. government's official web portal to all federal, state and local government web resources and services.